Airfield :
LOGIN :

Register | Disclaimer

   EN    FR    IT 

 










Legend :    VFR   Marginal VFR   IFR   Intensive IFR   Very Intensive IFR
Visi :
Ceiling :
>= 8 km
>= 3000ft
5 to 8 km
1000 to 3000 ft
1500m to 5 km
500 to 1000 ft
800 to 1500m
200 to 500 ft
< 800m
< 200 ft
Symbols :   Thunderstorms  Fog  Heavy snow  Heavy precipitations  Wind > 20 kt
SIGMETs :     Misc.  Thunderstorms  Icing  Turbulence  Mountain Waves  Volcanic Ashes







- Airport Elevation : 36 ft
- IATA code : GJL


DAAV - Jijel Ferhat Abbas

CURRENT METAR :
  • 161900Z 04002KT 9999 FEW020 27/21 Q1013

EXPIRED METARs :
  • 161800Z 01003KT 9999 FEW020 FEW023TCU 28/21 Q1013
  • 161700Z 02004KT 9999 FEW020 FEW023TCU 28/21 Q1013

TAF TAF DAAV
Valid from the 16 at 18:00 until the 17 at 18:00 UTC


161700Z 1618/1718 01014KT 9999 FEW020 FEW023TCU
PROB30
TEMPO 1618/1621 5000 -TSRA FEW020CB BKN030
BECMG 1620/1622 28008KT
PROB30
TEMPO 1700/1705 VRB02KT 2000 BR BKN010
BECMG 1706/1708 35012KT
No reported NOTAMs for that airfield.
5 SIGMETs reported for the Alger FIR (DAAA) :
 
Embedded thunderstorms
DAAA SIGMET 9 VALID 161900/162200 DAMM
DAAA ALGER FIR EMBD TS OBS E OF LINE N3550 E00320 - N3333 E00320 TOP FL320 MOV E 15KT NC=
Embedded thunderstorms
DAAA SIGMET 8 VALID 161905/162230 DAMM
DAAA ALGER FIR EMBD TS OBS S OF LINE N2027 E00441 - N2739 W00407 TOP FL400 MOV NE INTSF=
Embedded thunderstorms
DAAA SIGMET 8 VALID 161900/162200 DAMM
DAAA ALGER FIR EMBD TS OBS W OF LINE N3350 E00117 - N3050 E00117 TOP FL340 STNR NC=
SIGMET 5  cancelation
DAAA SIGMET 7 VALID 161900/162230 DAMM
DAAA ALGER FIR EMBD CNL SIGMET 5 VALID 161830/162230=
SIGMET 5  CANCELED :
Embedded thunderstorms
DAAA SIGMET 5 VALID 161830/162230 DAMM
DAAA ALGER FIR EMBD TS OBS S OF LINE N2027 E00441 - N2739 W00407 TOP FL400 MOV NE INTSF=



MET'MAP, your aeronautical weather chart ! - Copyright ORBIFLY December 2007 - Disclaimer

ORBIFLY MET'MAP TEAM :

Programming & Development : Alexandra Zaïnal
Concept & Development : Baudouin d'Aumeries
Co-Development & Prog : Marc-Olivier Méhu
Technical & hardware support : Manuel Goepfert

Contact : metmap@orbifly.com




SOURCES & CREDITS :

   NOAA